sensor_id;sensor_type;location;lat;lon;timestamp;P1;durP1;ratioP1;P2;durP2;ratioP2
31734;SDS011;18313;48.518;9.124;2022-12-17T00:02:44;27.73;;;14.15;;
31734;SDS011;18313;48.518;9.124;2022-12-17T00:05:50;27.23;;;15.00;;
31734;SDS011;18313;48.518;9.124;2022-12-17T00:08:54;30.85;;;16.13;;
31734;SDS011;18313;48.518;9.124;2022-12-17T00:11:58;31.15;;;15.40;;
31734;SDS011;18313;48.518;9.124;2022-12-17T00:15:04;25.90;;;14.00;;
31734;SDS011;18313;48.518;9.124;2022-12-17T00:18:09;26.17;;;13.57;;
31734;SDS011;18313;48.518;9.124;2022-12-17T00:21:12;25.90;;;13.68;;
31734;SDS011;18313;48.518;9.124;2022-12-17T00:24:17;25.08;;;13.68;;
31734;SDS011;18313;48.518;9.124;2022-12-17T00:27:20;26.75;;;13.68;;
31734;SDS011;18313;48.518;9.124;2022-12-17T00:30:24;25.23;;;14.05;;
31734;SDS011;18313;48.518;9.124;2022-12-17T00:33:28;25.10;;;14.02;;
31734;SDS011;18313;48.518;9.124;2022-12-17T00:36:32;24.45;;;13.38;;
31734;SDS011;18313;48.518;9.124;2022-12-17T00:39:36;25.55;;;14.02;;
31734;SDS011;18313;48.518;9.124;2022-12-17T00:42:43;25.40;;;13.98;;
31734;SDS011;18313;48.518;9.124;2022-12-17T00:45:48;23.38;;;12.98;;
31734;SDS011;18313;48.518;9.124;2022-12-17T00:48:52;25.88;;;13.73;;
31734;SDS011;18313;48.518;9.124;2022-12-17T00:51:56;25.88;;;14.57;;
31734;SDS011;18313;48.518;9.124;2022-12-17T00:55:00;25.00;;;12.38;;
31734;SDS011;18313;48.518;9.124;2022-12-17T00:58:04;22.83;;;12.50;;
31734;SDS011;18313;48.518;9.124;2022-12-17T01:01:08;23.95;;;13.18;;
31734;SDS011;18313;48.518;9.124;2022-12-17T01:04:13;23.80;;;12.20;;
31734;SDS011;18313;48.518;9.124;2022-12-17T01:07:17;24.50;;;12.73;;
31734;SDS011;18313;48.518;9.124;2022-12-17T01:10:21;26.15;;;14.20;;
31734;SDS011;18313;48.518;9.124;2022-12-17T01:13:25;24.13;;;13.23;;
31734;SDS011;18313;48.518;9.124;2022-12-17T01:16:29;25.58;;;13.63;;
31734;SDS011;18313;48.518;9.124;2022-12-17T01:19:33;25.75;;;14.15;;
31734;SDS011;18313;48.518;9.124;2022-12-17T01:22:40;28.70;;;14.93;;
31734;SDS011;18313;48.518;9.124;2022-12-17T01:25:51;28.15;;;15.20;;
31734;SDS011;18313;48.518;9.124;2022-12-17T01:28:58;26.47;;;14.73;;
31734;SDS011;18313;48.518;9.124;2022-12-17T01:32:04;25.48;;;13.18;;
31734;SDS011;18313;48.518;9.124;2022-12-17T01:35:08;24.85;;;13.88;;
31734;SDS011;18313;48.518;9.124;2022-12-17T01:38:13;30.05;;;15.35;;
31734;SDS011;18313;48.518;9.124;2022-12-17T01:41:18;30.35;;;15.25;;
31734;SDS011;18313;48.518;9.124;2022-12-17T01:47:51;31.58;;;14.45;;
31734;SDS011;18313;48.518;9.124;2022-12-17T01:50:58;23.48;;;12.55;;
31734;SDS011;18313;48.518;9.124;2022-12-17T01:54:02;33.20;;;16.85;;
31734;SDS011;18313;48.518;9.124;2022-12-17T02:00:12;28.98;;;14.48;;
31734;SDS011;18313;48.518;9.124;2022-12-17T02:03:17;30.08;;;14.00;;
31734;SDS011;18313;48.518;9.124;2022-12-17T02:06:23;25.80;;;12.38;;
31734;SDS011;18313;48.518;9.124;2022-12-17T02:09:51;20.10;;;10.30;;
31734;SDS011;18313;48.518;9.124;2022-12-17T02:13:09;16.33;;;9.50;;
31734;SDS011;18313;48.518;9.124;2022-12-17T02:26:47;28.90;;;14.63;;
31734;SDS011;18313;48.518;9.124;2022-12-17T02:29:56;28.25;;;14.02;;
31734;SDS011;18313;48.518;9.124;2022-12-17T02:33:08;30.20;;;14.20;;
31734;SDS011;18313;48.518;9.124;2022-12-17T02:36:14;28.45;;;15.07;;
31734;SDS011;18313;48.518;9.124;2022-12-17T02:39:18;27.38;;;14.20;;
31734;SDS011;18313;48.518;9.124;2022-12-17T02:42:22;29.30;;;14.52;;
31734;SDS011;18313;48.518;9.124;2022-12-17T02:45:28;26.98;;;13.73;;
31734;SDS011;18313;48.518;9.124;2022-12-17T02:48:33;29.20;;;13.57;;
31734;SDS011;18313;48.518;9.124;2022-12-17T02:51:37;28.80;;;13.10;;
31734;SDS011;18313;48.518;9.124;2022-12-17T02:54:42;26.35;;;13.45;;
31734;SDS011;18313;48.518;9.124;2022-12-17T02:57:46;29.73;;;14.60;;
31734;SDS011;18313;48.518;9.124;2022-12-17T03:01:10;26.08;;;14.07;;
31734;SDS011;18313;48.518;9.124;2022-12-17T03:04:14;24.48;;;11.70;;
31734;SDS011;18313;48.518;9.124;2022-12-17T03:07:18;16.40;;;9.43;;
31734;SDS011;18313;48.518;9.124;2022-12-17T03:10:23;17.80;;;10.00;;
31734;SDS011;18313;48.518;9.124;2022-12-17T03:13:27;18.40;;;9.82;;
31734;SDS011;18313;48.518;9.124;2022-12-17T03:16:32;17.95;;;10.30;;
31734;SDS011;18313;48.518;9.124;2022-12-17T03:19:36;16.90;;;9.95;;
31734;SDS011;18313;48.518;9.124;2022-12-17T03:22:40;17.27;;;10.85;;
31734;SDS011;18313;48.518;9.124;2022-12-17T03:25:44;18.15;;;10.30;;
31734;SDS011;18313;48.518;9.124;2022-12-17T03:28:48;16.63;;;9.80;;
31734;SDS011;18313;48.518;9.124;2022-12-17T03:31:52;17.13;;;9.48;;
31734;SDS011;18313;48.518;9.124;2022-12-17T03:34:56;25.75;;;11.30;;
31734;SDS011;18313;48.518;9.124;2022-12-17T03:38:00;27.55;;;12.88;;
31734;SDS011;18313;48.518;9.124;2022-12-17T03:41:04;32.90;;;13.30;;
31734;SDS011;18313;48.518;9.124;2022-12-17T03:44:08;26.43;;;12.60;;
31734;SDS011;18313;48.518;9.124;2022-12-17T03:47:12;35.40;;;14.18;;
31734;SDS011;18313;48.518;9.124;2022-12-17T03:50:16;31.58;;;14.25;;
31734;SDS011;18313;48.518;9.124;2022-12-17T03:53:20;31.27;;;13.30;;
31734;SDS011;18313;48.518;9.124;2022-12-17T03:56:24;30.80;;;13.10;;
31734;SDS011;18313;48.518;9.124;2022-12-17T03:59:29;37.55;;;14.95;;
31734;SDS011;18313;48.518;9.124;2022-12-17T04:02:33;33.33;;;13.52;;
31734;SDS011;18313;48.518;9.124;2022-12-17T04:05:38;29.80;;;13.67;;
31734;SDS011;18313;48.518;9.124;2022-12-17T04:08:42;30.67;;;15.38;;
31734;SDS011;18313;48.518;9.124;2022-12-17T04:11:46;51.70;;;19.40;;
31734;SDS011;18313;48.518;9.124;2022-12-17T04:14:50;39.58;;;16.10;;
31734;SDS011;18313;48.518;9.124;2022-12-17T04:17:54;28.75;;;14.10;;
31734;SDS011;18313;48.518;9.124;2022-12-17T04:20:58;26.30;;;13.40;;
31734;SDS011;18313;48.518;9.124;2022-12-17T04:24:02;27.67;;;13.38;;
31734;SDS011;18313;48.518;9.124;2022-12-17T04:27:06;26.88;;;12.57;;
31734;SDS011;18313;48.518;9.124;2022-12-17T04:30:10;25.38;;;12.70;;
31734;SDS011;18313;48.518;9.124;2022-12-17T04:33:14;30.98;;;13.43;;
31734;SDS011;18313;48.518;9.124;2022-12-17T04:36:18;26.40;;;12.20;;
31734;SDS011;18313;48.518;9.124;2022-12-17T04:39:23;24.45;;;12.57;;
31734;SDS011;18313;48.518;9.124;2022-12-17T04:42:27;26.52;;;12.45;;
31734;SDS011;18313;48.518;9.124;2022-12-17T04:45:31;27.02;;;13.10;;
31734;SDS011;18313;48.518;9.124;2022-12-17T04:48:35;25.67;;;12.77;;
31734;SDS011;18313;48.518;9.124;2022-12-17T04:51:39;27.52;;;12.55;;
31734;SDS011;18313;48.518;9.124;2022-12-17T04:54:43;31.17;;;13.95;;
31734;SDS011;18313;48.518;9.124;2022-12-17T04:57:48;31.58;;;13.95;;
31734;SDS011;18313;48.518;9.124;2022-12-17T05:00:52;30.63;;;13.70;;
31734;SDS011;18313;48.518;9.124;2022-12-17T05:03:56;27.48;;;14.00;;
31734;SDS011;18313;48.518;9.124;2022-12-17T05:07:01;30.90;;;14.10;;
31734;SDS011;18313;48.518;9.124;2022-12-17T05:10:05;33.63;;;14.65;;
31734;SDS011;18313;48.518;9.124;2022-12-17T05:13:09;35.15;;;16.48;;
31734;SDS011;18313;48.518;9.124;2022-12-17T05:16:15;32.45;;;15.15;;
31734;SDS011;18313;48.518;9.124;2022-12-17T05:19:19;36.53;;;15.82;;
31734;SDS011;18313;48.518;9.124;2022-12-17T05:22:23;34.05;;;16.25;;
31734;SDS011;18313;48.518;9.124;2022-12-17T05:25:27;50.38;;;15.73;;
31734;SDS011;18313;48.518;9.124;2022-12-17T05:28:31;34.00;;;15.50;;
31734;SDS011;18313;48.518;9.124;2022-12-17T05:31:35;33.50;;;14.77;;
31734;SDS011;18313;48.518;9.124;2022-12-17T05:34:39;37.72;;;16.92;;
31734;SDS011;18313;48.518;9.124;2022-12-17T05:37:43;31.77;;;15.57;;
31734;SDS011;18313;48.518;9.124;2022-12-17T05:40:47;32.63;;;15.05;;
31734;SDS011;18313;48.518;9.124;2022-12-17T05:43:51;37.47;;;15.90;;
31734;SDS011;18313;48.518;9.124;2022-12-17T05:46:55;33.17;;;15.20;;
31734;SDS011;18313;48.518;9.124;2022-12-17T05:49:59;30.42;;;15.55;;
31734;SDS011;18313;48.518;9.124;2022-12-17T05:53:03;35.13;;;15.65;;
31734;SDS011;18313;48.518;9.124;2022-12-17T05:56:08;37.67;;;14.98;;
31734;SDS011;18313;48.518;9.124;2022-12-17T05:59:12;35.42;;;15.65;;
31734;SDS011;18313;48.518;9.124;2022-12-17T06:02:16;33.85;;;16.77;;
31734;SDS011;18313;48.518;9.124;2022-12-17T06:05:22;30.80;;;14.40;;
31734;SDS011;18313;48.518;9.124;2022-12-17T06:08:36;37.58;;;15.93;;
31734;SDS011;18313;48.518;9.124;2022-12-17T06:11:40;28.27;;;14.65;;
31734;SDS011;18313;48.518;9.124;2022-12-17T06:14:47;30.65;;;14.73;;
31734;SDS011;18313;48.518;9.124;2022-12-17T06:17:54;35.67;;;16.00;;
31734;SDS011;18313;48.518;9.124;2022-12-17T06:21:01;37.63;;;16.15;;
31734;SDS011;18313;48.518;9.124;2022-12-17T06:24:05;32.10;;;15.52;;
31734;SDS011;18313;48.518;9.124;2022-12-17T06:27:10;32.42;;;15.57;;
31734;SDS011;18313;48.518;9.124;2022-12-17T06:30:13;33.78;;;15.40;;
31734;SDS011;18313;48.518;9.124;2022-12-17T06:33:17;42.50;;;16.13;;
31734;SDS011;18313;48.518;9.124;2022-12-17T06:36:22;33.70;;;16.55;;
31734;SDS011;18313;48.518;9.124;2022-12-17T06:39:26;36.17;;;15.37;;
31734;SDS011;18313;48.518;9.124;2022-12-17T06:42:30;36.97;;;16.15;;
31734;SDS011;18313;48.518;9.124;2022-12-17T06:45:34;33.95;;;16.02;;
31734;SDS011;18313;48.518;9.124;2022-12-17T06:48:39;36.47;;;16.83;;
31734;SDS011;18313;48.518;9.124;2022-12-17T06:51:43;33.47;;;15.75;;
31734;SDS011;18313;48.518;9.124;2022-12-17T06:54:47;34.28;;;15.63;;
31734;SDS011;18313;48.518;9.124;2022-12-17T06:57:58;36.15;;;16.10;;
31734;SDS011;18313;48.518;9.124;2022-12-17T07:01:02;35.17;;;16.42;;
31734;SDS011;18313;48.518;9.124;2022-12-17T07:04:06;33.90;;;16.50;;
31734;SDS011;18313;48.518;9.124;2022-12-17T07:07:10;39.15;;;15.98;;
31734;SDS011;18313;48.518;9.124;2022-12-17T07:10:14;35.05;;;15.15;;
31734;SDS011;18313;48.518;9.124;2022-12-17T07:13:18;34.30;;;15.98;;
31734;SDS011;18313;48.518;9.124;2022-12-17T07:16:23;43.15;;;17.83;;
31734;SDS011;18313;48.518;9.124;2022-12-17T07:19:27;40.40;;;17.30;;
31734;SDS011;18313;48.518;9.124;2022-12-17T07:22:31;37.05;;;17.42;;
31734;SDS011;18313;48.518;9.124;2022-12-17T07:25:35;35.15;;;16.45;;
31734;SDS011;18313;48.518;9.124;2022-12-17T07:28:39;37.03;;;17.00;;
31734;SDS011;18313;48.518;9.124;2022-12-17T07:31:43;39.42;;;17.52;;
31734;SDS011;18313;48.518;9.124;2022-12-17T07:34:52;38.08;;;17.45;;
31734;SDS011;18313;48.518;9.124;2022-12-17T07:37:57;34.15;;;15.77;;
31734;SDS011;18313;48.518;9.124;2022-12-17T07:44:06;43.42;;;17.10;;
31734;SDS011;18313;48.518;9.124;2022-12-17T07:47:10;55.50;;;17.63;;
31734;SDS011;18313;48.518;9.124;2022-12-17T07:50:14;42.40;;;16.27;;
31734;SDS011;18313;48.518;9.124;2022-12-17T07:53:19;43.15;;;17.15;;
31734;SDS011;18313;48.518;9.124;2022-12-17T07:56:23;50.83;;;20.45;;
31734;SDS011;18313;48.518;9.124;2022-12-17T07:59:27;44.10;;;17.85;;
31734;SDS011;18313;48.518;9.124;2022-12-17T08:02:31;48.38;;;18.20;;
31734;SDS011;18313;48.518;9.124;2022-12-17T08:05:35;53.83;;;18.48;;
31734;SDS011;18313;48.518;9.124;2022-12-17T08:08:41;50.75;;;18.88;;
31734;SDS011;18313;48.518;9.124;2022-12-17T08:11:46;58.80;;;20.85;;
31734;SDS011;18313;48.518;9.124;2022-12-17T08:14:50;67.65;;;26.33;;
31734;SDS011;18313;48.518;9.124;2022-12-17T08:18:01;47.47;;;19.42;;
31734;SDS011;18313;48.518;9.124;2022-12-17T08:21:10;45.63;;;19.27;;
31734;SDS011;18313;48.518;9.124;2022-12-17T08:24:15;50.92;;;18.50;;
31734;SDS011;18313;48.518;9.124;2022-12-17T08:27:19;57.13;;;18.38;;
31734;SDS011;18313;48.518;9.124;2022-12-17T08:30:23;43.40;;;17.67;;
31734;SDS011;18313;48.518;9.124;2022-12-17T08:33:27;46.70;;;16.95;;
31734;SDS011;18313;48.518;9.124;2022-12-17T08:36:31;42.75;;;16.40;;
31734;SDS011;18313;48.518;9.124;2022-12-17T08:39:35;42.42;;;15.93;;
31734;SDS011;18313;48.518;9.124;2022-12-17T08:42:39;49.03;;;17.67;;
31734;SDS011;18313;48.518;9.124;2022-12-17T08:45:47;43.28;;;16.77;;
31734;SDS011;18313;48.518;9.124;2022-12-17T08:48:54;45.03;;;17.05;;
31734;SDS011;18313;48.518;9.124;2022-12-17T08:51:58;37.13;;;16.70;;
31734;SDS011;18313;48.518;9.124;2022-12-17T08:55:03;40.97;;;16.80;;
31734;SDS011;18313;48.518;9.124;2022-12-17T08:58:07;37.50;;;17.50;;
31734;SDS011;18313;48.518;9.124;2022-12-17T09:01:11;52.00;;;18.92;;
31734;SDS011;18313;48.518;9.124;2022-12-17T09:04:15;66.53;;;18.88;;
31734;SDS011;18313;48.518;9.124;2022-12-17T09:07:20;43.17;;;17.77;;
31734;SDS011;18313;48.518;9.124;2022-12-17T09:10:34;43.03;;;17.50;;
31734;SDS011;18313;48.518;9.124;2022-12-17T09:13:38;38.13;;;16.77;;
31734;SDS011;18313;48.518;9.124;2022-12-17T09:16:42;40.25;;;17.27;;
31734;SDS011;18313;48.518;9.124;2022-12-17T09:19:48;39.72;;;17.83;;
31734;SDS011;18313;48.518;9.124;2022-12-17T09:22:52;44.20;;;18.88;;
31734;SDS011;18313;48.518;9.124;2022-12-17T09:25:56;46.05;;;18.98;;
31734;SDS011;18313;48.518;9.124;2022-12-17T09:29:00;48.63;;;17.90;;
31734;SDS011;18313;48.518;9.124;2022-12-17T09:32:05;49.67;;;18.70;;
31734;SDS011;18313;48.518;9.124;2022-12-17T09:35:08;46.67;;;18.35;;
31734;SDS011;18313;48.518;9.124;2022-12-17T09:38:13;73.32;;;25.95;;
31734;SDS011;18313;48.518;9.124;2022-12-17T09:41:35;256.40;;;74.10;;
31734;SDS011;18313;48.518;9.124;2022-12-17T09:45:30;72.00;;;27.35;;
31734;SDS011;18313;48.518;9.124;2022-12-17T09:51:59;48.28;;;19.42;;
31734;SDS011;18313;48.518;9.124;2022-12-17T09:55:26;50.53;;;19.50;;
31734;SDS011;18313;48.518;9.124;2022-12-17T09:58:51;45.40;;;18.35;;
31734;SDS011;18313;48.518;9.124;2022-12-17T10:01:55;52.38;;;19.65;;
31734;SDS011;18313;48.518;9.124;2022-12-17T10:05:00;46.83;;;19.58;;
31734;SDS011;18313;48.518;9.124;2022-12-17T10:08:06;51.33;;;20.83;;
31734;SDS011;18313;48.518;9.124;2022-12-17T10:11:26;55.70;;;21.05;;
31734;SDS011;18313;48.518;9.124;2022-12-17T10:14:31;48.30;;;20.42;;
31734;SDS011;18313;48.518;9.124;2022-12-17T10:17:35;46.45;;;18.70;;
31734;SDS011;18313;48.518;9.124;2022-12-17T10:20:47;47.05;;;20.15;;
31734;SDS011;18313;48.518;9.124;2022-12-17T10:24:07;44.90;;;19.00;;
31734;SDS011;18313;48.518;9.124;2022-12-17T10:27:16;48.92;;;20.08;;
31734;SDS011;18313;48.518;9.124;2022-12-17T10:30:22;42.60;;;19.75;;
31734;SDS011;18313;48.518;9.124;2022-12-17T10:33:26;43.03;;;19.48;;
31734;SDS011;18313;48.518;9.124;2022-12-17T10:36:30;48.60;;;20.30;;
31734;SDS011;18313;48.518;9.124;2022-12-17T10:39:34;46.28;;;20.95;;
31734;SDS011;18313;48.518;9.124;2022-12-17T10:42:39;45.88;;;19.77;;
31734;SDS011;18313;48.518;9.124;2022-12-17T10:45:51;48.13;;;21.85;;
31734;SDS011;18313;48.518;9.124;2022-12-17T10:49:03;48.00;;;21.73;;
31734;SDS011;18313;48.518;9.124;2022-12-17T10:52:28;48.40;;;20.40;;
31734;SDS011;18313;48.518;9.124;2022-12-17T10:55:34;45.03;;;18.80;;
31734;SDS011;18313;48.518;9.124;2022-12-17T10:58:42;43.17;;;19.85;;
31734;SDS011;18313;48.518;9.124;2022-12-17T11:01:48;40.50;;;19.58;;
31734;SDS011;18313;48.518;9.124;2022-12-17T11:05:01;39.33;;;18.35;;
31734;SDS011;18313;48.518;9.124;2022-12-17T11:08:06;43.33;;;19.83;;
31734;SDS011;18313;48.518;9.124;2022-12-17T11:14:17;43.40;;;19.30;;
31734;SDS011;18313;48.518;9.124;2022-12-17T11:17:21;45.13;;;20.80;;
31734;SDS011;18313;48.518;9.124;2022-12-17T11:20:46;41.13;;;19.30;;
31734;SDS011;18313;48.518;9.124;2022-12-17T11:23:56;46.38;;;21.50;;
31734;SDS011;18313;48.518;9.124;2022-12-17T11:27:07;52.08;;;20.90;;
31734;SDS011;18313;48.518;9.124;2022-12-17T11:30:14;46.60;;;20.52;;
31734;SDS011;18313;48.518;9.124;2022-12-17T11:36:30;55.13;;;22.13;;
31734;SDS011;18313;48.518;9.124;2022-12-17T11:43:32;44.42;;;21.08;;
31734;SDS011;18313;48.518;9.124;2022-12-17T11:46:44;50.00;;;22.83;;
31734;SDS011;18313;48.518;9.124;2022-12-17T11:50:17;51.78;;;22.67;;
31734;SDS011;18313;48.518;9.124;2022-12-17T11:56:51;55.50;;;23.05;;
31734;SDS011;18313;48.518;9.124;2022-12-17T12:00:17;55.92;;;22.50;;
31734;SDS011;18313;48.518;9.124;2022-12-17T12:06:45;49.00;;;22.15;;
31734;SDS011;18313;48.518;9.124;2022-12-17T12:10:02;49.22;;;22.25;;
31734;SDS011;18313;48.518;9.124;2022-12-17T12:23:47;50.97;;;21.52;;
31734;SDS011;18313;48.518;9.124;2022-12-17T12:27:08;47.47;;;21.92;;
31734;SDS011;18313;48.518;9.124;2022-12-17T12:30:28;57.50;;;23.95;;
31734;SDS011;18313;48.518;9.124;2022-12-17T12:37:03;50.97;;;22.85;;
31734;SDS011;18313;48.518;9.124;2022-12-17T12:43:27;53.00;;;23.88;;
31734;SDS011;18313;48.518;9.124;2022-12-17T12:46:42;55.00;;;23.23;;
31734;SDS011;18313;48.518;9.124;2022-12-17T12:49:59;61.22;;;24.25;;
31734;SDS011;18313;48.518;9.124;2022-12-17T12:53:14;52.10;;;23.98;;
31734;SDS011;18313;48.518;9.124;2022-12-17T12:56:25;54.40;;;24.73;;
31734;SDS011;18313;48.518;9.124;2022-12-17T12:59:36;56.22;;;23.83;;
31734;SDS011;18313;48.518;9.124;2022-12-17T13:02:40;43.95;;;20.52;;
31734;SDS011;18313;48.518;9.124;2022-12-17T13:05:44;44.33;;;21.65;;
31734;SDS011;18313;48.518;9.124;2022-12-17T13:08:30;47.60;;;24.63;;
31734;SDS011;18313;48.518;9.124;2022-12-17T13:11:29;46.17;;;22.55;;
31734;SDS011;18313;48.518;9.124;2022-12-17T13:14:21;57.97;;;25.33;;
31734;SDS011;18313;48.518;9.124;2022-12-17T13:29:26;57.25;;;24.15;;
31734;SDS011;18313;48.518;9.124;2022-12-17T13:32:19;52.88;;;24.23;;
31734;SDS011;18313;48.518;9.124;2022-12-17T13:35:23;56.15;;;26.38;;
31734;SDS011;18313;48.518;9.124;2022-12-17T13:38:30;53.08;;;23.52;;
31734;SDS011;18313;48.518;9.124;2022-12-17T13:41:28;49.20;;;23.45;;
31734;SDS011;18313;48.518;9.124;2022-12-17T13:44:16;52.90;;;23.08;;
31734;SDS011;18313;48.518;9.124;2022-12-17T13:47:29;52.38;;;24.63;;
31734;SDS011;18313;48.518;9.124;2022-12-17T13:50:22;56.00;;;24.70;;
31734;SDS011;18313;48.518;9.124;2022-12-17T13:53:18;60.60;;;25.30;;
31734;SDS011;18313;48.518;9.124;2022-12-17T13:56:04;71.78;;;22.77;;
31734;SDS011;18313;48.518;9.124;2022-12-17T13:58:50;60.75;;;24.25;;
31734;SDS011;18313;48.518;9.124;2022-12-17T14:01:44;57.45;;;25.13;;
31734;SDS011;18313;48.518;9.124;2022-12-17T14:04:32;62.65;;;27.25;;
31734;SDS011;18313;48.518;9.124;2022-12-17T14:07:17;72.97;;;27.17;;
31734;SDS011;18313;48.518;9.124;2022-12-17T14:10:04;61.85;;;28.02;;
31734;SDS011;18313;48.518;9.124;2022-12-17T14:13:03;62.83;;;28.30;;
31734;SDS011;18313;48.518;9.124;2022-12-17T14:15:51;67.63;;;28.48;;
31734;SDS011;18313;48.518;9.124;2022-12-17T14:18:36;70.30;;;30.08;;
31734;SDS011;18313;48.518;9.124;2022-12-17T14:21:26;74.25;;;30.35;;
31734;SDS011;18313;48.518;9.124;2022-12-17T14:24:13;70.60;;;29.13;;
31734;SDS011;18313;48.518;9.124;2022-12-17T14:27:01;75.10;;;29.80;;
31734;SDS011;18313;48.518;9.124;2022-12-17T14:29:46;81.65;;;30.08;;
31734;SDS011;18313;48.518;9.124;2022-12-17T14:32:33;70.75;;;30.25;;
31734;SDS011;18313;48.518;9.124;2022-12-17T14:38:16;64.32;;;29.30;;
31734;SDS011;18313;48.518;9.124;2022-12-17T14:41:21;90.22;;;29.92;;
31734;SDS011;18313;48.518;9.124;2022-12-17T14:44:26;79.40;;;31.03;;
31734;SDS011;18313;48.518;9.124;2022-12-17T14:53:26;72.47;;;31.50;;
31734;SDS011;18313;48.518;9.124;2022-12-17T14:56:20;73.65;;;29.77;;
31734;SDS011;18313;48.518;9.124;2022-12-17T15:05:11;74.28;;;31.58;;
31734;SDS011;18313;48.518;9.124;2022-12-17T15:08:00;68.25;;;30.00;;
31734;SDS011;18313;48.518;9.124;2022-12-17T15:10:46;168.20;;;28.42;;
31734;SDS011;18313;48.518;9.124;2022-12-17T15:13:32;64.00;;;28.20;;
31734;SDS011;18313;48.518;9.124;2022-12-17T15:16:17;63.75;;;27.67;;
31734;SDS011;18313;48.518;9.124;2022-12-17T15:19:03;129.23;;;27.45;;
31734;SDS011;18313;48.518;9.124;2022-12-17T15:21:49;75.43;;;26.98;;
31734;SDS011;18313;48.518;9.124;2022-12-17T15:24:35;71.03;;;28.05;;
31734;SDS011;18313;48.518;9.124;2022-12-17T15:27:20;182.55;;;30.80;;
31734;SDS011;18313;48.518;9.124;2022-12-17T15:30:06;76.88;;;30.27;;
31734;SDS011;18313;48.518;9.124;2022-12-17T15:32:54;77.03;;;29.70;;
31734;SDS011;18313;48.518;9.124;2022-12-17T15:35:41;76.65;;;29.73;;
31734;SDS011;18313;48.518;9.124;2022-12-17T15:38:27;89.63;;;31.50;;
31734;SDS011;18313;48.518;9.124;2022-12-17T15:41:13;78.57;;;31.42;;
31734;SDS011;18313;48.518;9.124;2022-12-17T15:44:17;76.82;;;30.70;;
31734;SDS011;18313;48.518;9.124;2022-12-17T15:47:03;70.68;;;29.40;;
31734;SDS011;18313;48.518;9.124;2022-12-17T15:49:48;85.82;;;31.98;;
31734;SDS011;18313;48.518;9.124;2022-12-17T15:52:34;69.40;;;29.52;;
31734;SDS011;18313;48.518;9.124;2022-12-17T15:55:19;72.45;;;28.42;;
31734;SDS011;18313;48.518;9.124;2022-12-17T15:58:05;67.57;;;29.02;;
31734;SDS011;18313;48.518;9.124;2022-12-17T16:00:53;70.47;;;28.98;;
31734;SDS011;18313;48.518;9.124;2022-12-17T16:03:38;71.38;;;30.05;;
31734;SDS011;18313;48.518;9.124;2022-12-17T16:06:24;77.63;;;30.30;;
31734;SDS011;18313;48.518;9.124;2022-12-17T16:09:10;69.25;;;29.92;;
31734;SDS011;18313;48.518;9.124;2022-12-17T16:11:55;117.38;;;28.25;;
31734;SDS011;18313;48.518;9.124;2022-12-17T16:14:41;66.88;;;28.38;;
31734;SDS011;18313;48.518;9.124;2022-12-17T16:17:27;118.25;;;28.38;;
31734;SDS011;18313;48.518;9.124;2022-12-17T16:20:12;71.25;;;29.85;;
31734;SDS011;18313;48.518;9.124;2022-12-17T16:22:58;76.47;;;28.88;;
31734;SDS011;18313;48.518;9.124;2022-12-17T16:25:53;71.18;;;28.60;;
31734;SDS011;18313;48.518;9.124;2022-12-17T16:28:40;61.85;;;27.63;;
31734;SDS011;18313;48.518;9.124;2022-12-17T16:31:26;65.63;;;28.05;;
31734;SDS011;18313;48.518;9.124;2022-12-17T16:34:12;55.45;;;25.85;;
31734;SDS011;18313;48.518;9.124;2022-12-17T16:36:58;54.42;;;24.92;;
31734;SDS011;18313;48.518;9.124;2022-12-17T16:39:45;62.30;;;27.25;;
31734;SDS011;18313;48.518;9.124;2022-12-17T16:42:30;51.08;;;24.00;;
31734;SDS011;18313;48.518;9.124;2022-12-17T16:45:16;64.70;;;26.75;;
31734;SDS011;18313;48.518;9.124;2022-12-17T16:48:01;65.32;;;27.33;;
31734;SDS011;18313;48.518;9.124;2022-12-17T16:50:47;61.03;;;27.02;;
31734;SDS011;18313;48.518;9.124;2022-12-17T16:53:34;60.95;;;27.25;;
31734;SDS011;18313;48.518;9.124;2022-12-17T16:56:21;67.68;;;27.77;;
31734;SDS011;18313;48.518;9.124;2022-12-17T16:59:09;66.93;;;27.50;;
31734;SDS011;18313;48.518;9.124;2022-12-17T17:01:56;69.05;;;28.60;;
31734;SDS011;18313;48.518;9.124;2022-12-17T17:04:44;57.55;;;25.95;;
31734;SDS011;18313;48.518;9.124;2022-12-17T17:07:30;120.63;;;26.42;;
31734;SDS011;18313;48.518;9.124;2022-12-17T17:10:15;59.88;;;24.85;;
31734;SDS011;18313;48.518;9.124;2022-12-17T17:13:01;61.60;;;24.35;;
31734;SDS011;18313;48.518;9.124;2022-12-17T17:15:47;51.40;;;23.88;;
31734;SDS011;18313;48.518;9.124;2022-12-17T17:18:33;57.45;;;25.33;;
31734;SDS011;18313;48.518;9.124;2022-12-17T17:21:25;62.33;;;27.02;;
31734;SDS011;18313;48.518;9.124;2022-12-17T17:24:15;59.65;;;27.95;;
31734;SDS011;18313;48.518;9.124;2022-12-17T17:27:05;130.00;;;24.83;;
31734;SDS011;18313;48.518;9.124;2022-12-17T17:29:51;50.15;;;23.65;;
31734;SDS011;18313;48.518;9.124;2022-12-17T17:32:39;56.17;;;24.48;;
31734;SDS011;18313;48.518;9.124;2022-12-17T17:35:25;54.20;;;24.80;;
31734;SDS011;18313;48.518;9.124;2022-12-17T17:38:10;62.38;;;27.70;;
31734;SDS011;18313;48.518;9.124;2022-12-17T17:40:56;60.92;;;26.33;;
31734;SDS011;18313;48.518;9.124;2022-12-17T17:43:42;62.47;;;27.60;;
31734;SDS011;18313;48.518;9.124;2022-12-17T17:46:28;69.93;;;29.58;;
31734;SDS011;18313;48.518;9.124;2022-12-17T17:49:14;65.55;;;29.08;;
31734;SDS011;18313;48.518;9.124;2022-12-17T17:52:00;75.03;;;26.30;;
31734;SDS011;18313;48.518;9.124;2022-12-17T17:54:55;61.70;;;25.58;;
31734;SDS011;18313;48.518;9.124;2022-12-17T17:57:41;58.40;;;25.95;;
31734;SDS011;18313;48.518;9.124;2022-12-17T18:00:26;66.63;;;27.98;;
31734;SDS011;18313;48.518;9.124;2022-12-17T18:03:12;68.88;;;29.63;;
31734;SDS011;18313;48.518;9.124;2022-12-17T18:06:02;74.68;;;28.55;;
31734;SDS011;18313;48.518;9.124;2022-12-17T18:08:49;114.72;;;52.50;;
31734;SDS011;18313;48.518;9.124;2022-12-17T18:11:35;82.97;;;36.30;;
31734;SDS011;18313;48.518;9.124;2022-12-17T18:14:22;73.97;;;32.80;;
31734;SDS011;18313;48.518;9.124;2022-12-17T18:17:08;86.75;;;31.20;;
31734;SDS011;18313;48.518;9.124;2022-12-17T18:19:54;67.75;;;29.92;;
31734;SDS011;18313;48.518;9.124;2022-12-17T18:22:39;75.90;;;30.20;;
31734;SDS011;18313;48.518;9.124;2022-12-17T18:25:25;142.05;;;35.80;;
31734;SDS011;18313;48.518;9.124;2022-12-17T18:28:10;64.35;;;29.08;;
31734;SDS011;18313;48.518;9.124;2022-12-17T18:30:56;119.68;;;30.90;;
31734;SDS011;18313;48.518;9.124;2022-12-17T18:33:42;109.40;;;38.92;;
31734;SDS011;18313;48.518;9.124;2022-12-17T18:36:35;85.93;;;34.05;;
31734;SDS011;18313;48.518;9.124;2022-12-17T18:39:22;86.20;;;31.75;;
31734;SDS011;18313;48.518;9.124;2022-12-17T18:42:09;115.38;;;41.90;;
31734;SDS011;18313;48.518;9.124;2022-12-17T18:45:12;84.22;;;31.75;;
31734;SDS011;18313;48.518;9.124;2022-12-17T18:47:58;90.03;;;35.10;;
31734;SDS011;18313;48.518;9.124;2022-12-17T18:50:44;76.47;;;31.33;;
31734;SDS011;18313;48.518;9.124;2022-12-17T18:53:30;79.55;;;33.75;;
31734;SDS011;18313;48.518;9.124;2022-12-17T18:56:17;89.05;;;32.03;;
31734;SDS011;18313;48.518;9.124;2022-12-17T19:02:13;78.20;;;28.45;;
31734;SDS011;18313;48.518;9.124;2022-12-17T19:04:59;76.82;;;29.65;;